Flight Number: EUR2340 Duration: 3:00
Departure: Antalya (LTAI) at 06:00 Distance: 1080 Nm
Arrival: Munich Int'l (EDDM) at 09:00 Equipment: A321

Weather Information
Antalya, Turkey (LTAI) 36-42N 030-44E 57M Aug 19, 2018 - 04:50 AM EDT / 2018.08.19 0850 UTC
Wind: from the S (190 degrees) at 9 MPH (8 KT):0
Visibility: greater than 7 mile(s):0
Sky conditions: partly cloudy Temperature: 86 F (30 C) Heat index: 95.0 F (35.0 C):1 Dew Point: 75 F (24 C) Relative Humidity: 70% Pressure (altimeter): 29.71 in. Hg (1006 hPa)
ob: LTAI 190850Z 19008KT 9999 SCT030 30/24 Q1006 NOSIG cycle: 9
Sunrise: 03:20 Sunset: 16:40 (UTC)

Munchen, Germany (EDDM) 48-21N 011-47E Aug 19, 2018 - 04:50 AM EDT / 2018.08.19 0850 UTC
Wind: Variable at 3 MPH (3 KT):0
Visibility: greater than 7 mile(s):0 Temperature: 75 F (24 C) Dew Point: 59 F (15 C) Relative Humidity: 57% Pressure (altimeter): 30.18 in. Hg (1022 hPa)
ob: EDDM 190850Z VRB03KT CAVOK 24/15 Q1022 NOSIG cycle: 9
Sunrise: 04:16 Sunset: 18:15 (UTC)

TAF:2018/08/19 06:27 TAF EDDM 190500Z 1906/2012 VRB03KT CAVOK TEMPO 1906/1909 26005KT TEMPO 1911/1916 02005KT BECMG 1920/1922 25005KT

Previous Pireps for this route
Date Aircraft Flight time Fuel used Landing rate On time
2015-01-07A32102.5417912-205Charter
2016-01-18A32103.0616984-2No
2016-04-05A32103.3526587-465.38No
2016-09-30A330-20002.3440823-171Charter
(pireps marked green are flown by you)

Route map